Terminal Aerodrome Forecast
Issued by NWS Wilmington, OH

Current Version | Previous Version | Text Only | Print | Product List | Glossary Off
Versions: 1 2 3 4 5 6 7 8 9 10 11 12 13 14 15 16 17 18 19 20 21 22 23 24 25 26

000
FTUS41 KILN 031500 AAA
TAFDAY
TAF AMD
KDAY 031516Z 0315/0412 14010KT 6SM -FZRA OVC025
      TEMPO 0315/0316 3SM FZRA BR OVC011
     FM031600 15012G20KT 5SM -FZRA BR BKN008 OVC011
     FM031800 24014G22KT 4SM -SHRA BR BKN009 OVC015
     FM040300 27012KT 5SM BR OVC012=

USA.gov is the U.S. government's official web portal to all federal, state and local government web resources and services.